Limehouse, South Carolina
Current Conditions -  °F | °C
As of 3:53 PM on Thursday 23 Oct 2014 (Local Time) from KSAV Reporting Station
Clear Clear  
Wind Chill: 73°   Ceiling: Unl
Heat Index: 73°   Visibility: 10mi
Dew Point: 45°   Wind: 7mph
Humidity: 37%   Direction: 350°N
Pressure: 30"   Gusts: NA
Location:  32.2576°N, 81.057°W
Report Text: KSAV 231953Z 35006KT 10SM CLR 23/07 A3000 RMK AO2 SLP159 T02280072
Loading
Personal Weather Stations






























Interactive Weather Map
Tropical Storm Tracking
New forecast layout! Learn more

10-Day Weather Forecast

Advertisements
Track Severe Weather on mobile